createdAt,value
2023-05-05T00:00:13.347Z,27.65
2023-05-05T00:02:41.478Z,21.08
2023-05-05T00:05:09.442Z,17.02
2023-05-05T00:07:37.153Z,20.25
2023-05-05T00:10:05.513Z,21.10
2023-05-05T00:12:34.864Z,18.30
2023-05-05T00:15:03.534Z,20.80
2023-05-05T00:17:31.204Z,17.55
2023-05-05T00:19:59.733Z,17.88
2023-05-05T00:22:27.400Z,18.80
2023-05-05T00:24:55.654Z,18.08
2023-05-05T00:27:23.182Z,22.63
2023-05-05T00:29:51.294Z,20.95
2023-05-05T00:32:18.891Z,21.20
2023-05-05T00:34:46.581Z,17.08
2023-05-05T00:37:14.398Z,21.65
2023-05-05T00:39:42.371Z,19.13
2023-05-05T00:44:40.716Z,21.10
2023-05-05T00:47:09.527Z,16.65
2023-05-05T00:49:38.961Z,15.38
2023-05-05T00:52:08.191Z,16.67
2023-05-05T00:54:36.791Z,17.08
2023-05-05T00:57:05.570Z,17.17
2023-05-05T00:59:34.968Z,21.25
2023-05-05T01:02:04.120Z,21.05
2023-05-05T01:04:32.294Z,17.40
2023-05-05T01:10:07.246Z,20.25
2023-05-05T01:12:44.892Z,19.10
2023-05-05T01:15:33.383Z,17.60
2023-05-05T01:18:29.538Z,17.60
2023-05-05T01:21:23.579Z,17.35
2023-05-05T01:24:25.340Z,15.30
2023-05-05T01:26:56.026Z,17.25
2023-05-05T01:29:26.420Z,14.90
2023-05-05T01:31:57.193Z,18.88
2023-05-05T01:34:28.550Z,15.60
2023-05-05T01:37:18.495Z,15.80
2023-05-05T01:39:53.048Z,13.93
2023-05-05T01:42:22.430Z,16.67
2023-05-05T01:44:52.509Z,12.93
2023-05-05T01:47:22.456Z,11.93
2023-05-05T01:49:51.049Z,15.38
2023-05-05T01:52:19.504Z,13.85
2023-05-05T01:54:50.488Z,13.85
2023-05-05T01:57:21.200Z,17.17
2023-05-05T01:59:52.105Z,14.05
2023-05-05T02:02:22.422Z,18.92
2023-05-05T02:04:53.079Z,14.63
2023-05-05T02:07:23.041Z,13.00
2023-05-05T02:09:51.762Z,14.32
2023-05-05T02:12:20.759Z,9.88
2023-05-05T02:14:50.263Z,11.32
2023-05-05T02:17:21.405Z,10.50
2023-05-05T02:19:52.531Z,10.20
2023-05-05T02:22:20.445Z,10.20
2023-05-05T02:24:48.304Z,9.15
2023-05-05T02:27:19.433Z,8.68
2023-05-05T02:29:57.956Z,11.65
2023-05-05T02:32:37.802Z,10.13
2023-05-05T02:35:16.560Z,10.60
2023-05-05T02:37:56.168Z,8.95
2023-05-05T02:42:57.424Z,11.73
2023-05-05T02:45:30.987Z,10.85
2023-05-05T02:48:03.334Z,12.07
2023-05-05T02:50:34.173Z,8.90
2023-05-05T02:53:26.955Z,9.48
2023-05-05T02:56:08.159Z,9.00
2023-05-05T02:58:51.323Z,10.02
2023-05-05T03:01:44.905Z,10.13
2023-05-05T03:04:29.326Z,9.10
2023-05-05T03:06:59.618Z,9.48
2023-05-05T03:09:42.200Z,7.80
2023-05-05T03:12:14.419Z,8.32
2023-05-05T03:14:56.009Z,9.68
2023-05-05T03:17:27.911Z,11.30
2023-05-05T03:19:58.690Z,11.32
2023-05-05T03:22:27.963Z,11.40
2023-05-05T03:24:59.530Z,10.60
2023-05-05T03:27:27.833Z,11.60
2023-05-05T03:29:55.900Z,14.73
2023-05-05T03:32:24.631Z,15.68
2023-05-05T03:34:55.417Z,14.50
2023-05-05T03:37:28.065Z,9.93
2023-05-05T03:39:55.892Z,12.68
2023-05-05T03:42:24.668Z,16.95
2023-05-05T03:44:57.935Z,14.82
2023-05-05T03:47:27.013Z,13.52
2023-05-05T03:49:56.305Z,16.65
2023-05-05T03:52:23.848Z,16.98
2023-05-05T03:54:51.771Z,14.48
2023-05-05T03:57:19.725Z,18.40
2023-05-05T03:59:47.445Z,18.10
2023-05-05T04:02:18.293Z,15.25
2023-05-05T04:04:46.838Z,16.23
2023-05-05T04:07:15.371Z,13.35
2023-05-05T04:09:44.853Z,19.25
2023-05-05T04:12:13.398Z,15.52
2023-05-05T04:14:41.508Z,16.75
2023-05-05T04:17:12.051Z,14.88
2023-05-05T04:19:39.916Z,15.18
2023-05-05T04:22:08.985Z,15.02
2023-05-05T04:24:37.345Z,15.43
2023-05-05T04:27:05.378Z,17.02
2023-05-05T04:29:33.036Z,16.52
2023-05-05T04:32:01.206Z,17.30
2023-05-05T04:34:29.926Z,16.05
2023-05-05T04:36:57.726Z,19.25
2023-05-05T04:39:25.432Z,20.63
2023-05-05T04:41:53.462Z,19.23
2023-05-05T04:44:21.259Z,19.38
2023-05-05T04:46:49.419Z,26.75
2023-05-05T04:49:17.275Z,16.25
2023-05-05T04:51:45.050Z,16.75
2023-05-05T04:54:13.362Z,20.33
2023-05-05T04:56:41.911Z,19.73
2023-05-05T04:59:10.203Z,21.20
2023-05-05T05:01:38.688Z,18.17
2023-05-05T05:04:06.432Z,18.63
2023-05-05T05:06:34.297Z,24.23
2023-05-05T05:09:02.912Z,21.77
2023-05-05T05:11:31.839Z,22.77
2023-05-05T05:13:59.916Z,22.08
2023-05-05T05:18:57.026Z,20.83
2023-05-05T05:23:52.476Z,21.67
2023-05-05T05:26:20.313Z,25.77
2023-05-05T05:31:16.394Z,23.75
2023-05-05T05:33:44.159Z,21.25
2023-05-05T05:36:14.044Z,24.40
2023-05-05T05:38:41.576Z,19.60
2023-05-05T05:41:10.069Z,22.48
2023-05-05T05:43:38.750Z,21.45
2023-05-05T05:46:08.375Z,22.88
2023-05-05T05:48:38.305Z,25.77
2023-05-05T05:51:06.355Z,22.50
2023-05-05T05:53:34.037Z,26.77
2023-05-05T05:56:01.824Z,18.60
2023-05-05T05:58:30.045Z,19.15
2023-05-05T06:00:59.883Z,19.90
2023-05-05T06:03:28.418Z,22.85
2023-05-05T06:05:57.041Z,23.13
2023-05-05T06:08:25.300Z,22.25
2023-05-05T06:10:54.839Z,22.33
2023-05-05T06:15:52.199Z,17.55
2023-05-05T06:18:20.788Z,19.92
2023-05-05T06:20:52.411Z,21.05
2023-05-05T06:23:22.308Z,18.55
2023-05-05T06:25:56.018Z,16.67
2023-05-05T06:28:23.657Z,16.42
2023-05-05T06:30:52.152Z,17.55
2023-05-05T06:33:19.794Z,18.13
2023-05-05T06:35:49.548Z,16.45
2023-05-05T06:38:17.223Z,14.82
2023-05-05T06:40:44.873Z,15.35
2023-05-05T06:43:12.462Z,16.70
2023-05-05T06:45:46.107Z,16.20
2023-05-05T06:48:13.823Z,14.32
2023-05-05T06:50:42.234Z,16.52
2023-05-05T06:53:09.901Z,12.18
2023-05-05T06:55:38.258Z,13.27
2023-05-05T06:58:05.860Z,13.43
2023-05-05T07:00:33.725Z,15.65
2023-05-05T07:05:29.119Z,12.02
2023-05-05T07:07:57.316Z,14.35
2023-05-05T07:10:25.843Z,12.57
2023-05-05T07:12:54.949Z,12.30
2023-05-05T07:15:27.580Z,16.70
2023-05-05T07:17:57.132Z,16.20
2023-05-05T07:20:25.427Z,12.98
2023-05-05T07:22:53.030Z,13.80
2023-05-05T07:25:21.695Z,12.70
2023-05-05T07:27:49.350Z,14.13
2023-05-05T07:30:18.755Z,12.35
2023-05-05T07:32:47.029Z,10.68
2023-05-05T07:35:14.847Z,13.65
2023-05-05T07:37:43.000Z,13.07
2023-05-05T07:40:11.151Z,9.80
2023-05-05T07:42:39.129Z,10.43
2023-05-05T07:45:07.288Z,10.90
2023-05-05T07:50:02.808Z,11.45
2023-05-05T07:52:45.207Z,12.05
2023-05-05T07:55:20.974Z,10.52
2023-05-05T07:57:56.572Z,11.38
2023-05-05T08:00:25.780Z,11.82
2023-05-05T08:02:55.084Z,9.23
2023-05-05T08:05:22.755Z,13.95
2023-05-05T08:07:50.416Z,13.48
2023-05-05T08:10:18.031Z,12.60
2023-05-05T08:12:45.694Z,12.27
2023-05-05T08:15:13.317Z,7.80
2023-05-05T08:17:49.000Z,11.25
2023-05-05T08:20:18.345Z,9.48
2023-05-05T08:22:46.917Z,10.70
2023-05-05T08:25:15.881Z,12.95
2023-05-05T08:27:45.013Z,11.90
2023-05-05T08:30:13.203Z,11.93
2023-05-05T08:35:09.040Z,10.40
2023-05-05T08:37:37.279Z,13.48
2023-05-05T08:40:07.475Z,11.18
2023-05-05T08:42:38.525Z,12.80
2023-05-05T08:45:08.789Z,11.38
2023-05-05T08:47:38.373Z,13.60
2023-05-05T08:50:07.043Z,12.70
2023-05-05T08:52:40.591Z,10.85
2023-05-05T08:55:24.545Z,11.30
2023-05-05T08:57:56.736Z,11.98
2023-05-05T09:00:26.615Z,11.38
2023-05-05T09:02:57.270Z,8.68
2023-05-05T09:05:27.208Z,11.07
2023-05-05T09:07:55.121Z,9.13
2023-05-05T09:10:29.752Z,9.68
2023-05-05T09:12:58.143Z,10.25
2023-05-05T09:15:28.584Z,10.80
2023-05-05T09:17:58.404Z,9.02
2023-05-05T09:20:34.688Z,11.63
2023-05-05T09:23:13.678Z,11.95
2023-05-05T09:25:43.880Z,8.75
2023-05-05T09:28:16.467Z,8.02
2023-05-05T09:30:46.389Z,7.97
2023-05-05T09:33:14.419Z,10.63
2023-05-05T09:35:52.553Z,9.13
2023-05-05T09:38:21.510Z,10.23
2023-05-05T09:40:54.091Z,10.75
2023-05-05T09:43:23.954Z,9.40
2023-05-05T09:45:52.064Z,9.05
2023-05-05T09:48:30.674Z,4.30
2023-05-05T09:50:59.466Z,6.95
2023-05-05T09:53:39.005Z,7.25
2023-05-05T09:56:08.700Z,7.07
2023-05-05T09:58:36.566Z,11.98
2023-05-05T10:01:05.323Z,6.10
2023-05-05T10:03:33.158Z,4.75
2023-05-05T10:08:31.629Z,6.20
2023-05-05T10:11:01.902Z,6.30
2023-05-05T10:13:34.587Z,9.40
2023-05-05T10:16:04.906Z,7.63
2023-05-05T10:18:33.594Z,7.57
2023-05-05T10:21:03.647Z,5.90
2023-05-05T10:23:43.547Z,6.28
2023-05-05T10:26:14.176Z,5.20
2023-05-05T10:28:46.003Z,5.25
2023-05-05T10:31:59.006Z,6.72
2023-05-05T10:34:46.593Z,6.40
2023-05-05T10:37:19.144Z,7.35
2023-05-05T10:39:49.137Z,7.53
2023-05-05T10:42:21.287Z,4.03
2023-05-05T10:44:50.863Z,6.93
2023-05-05T10:47:22.730Z,7.28
2023-05-05T10:50:07.460Z,7.15
2023-05-05T10:52:51.642Z,7.20
2023-05-05T10:55:44.395Z,4.65
2023-05-05T10:58:51.264Z,5.00
2023-05-05T11:01:34.935Z,4.35
2023-05-05T11:04:22.348Z,6.10
2023-05-05T11:07:10.468Z,6.65
2023-05-05T11:09:58.349Z,8.65
2023-05-05T11:12:26.110Z,5.15
2023-05-05T11:17:47.761Z,7.60
2023-05-05T11:20:15.753Z,9.05
2023-05-05T11:23:02.172Z,4.35
2023-05-05T11:25:36.569Z,5.95
2023-05-05T11:28:14.824Z,6.72
2023-05-05T11:30:58.684Z,4.00
2023-05-05T11:33:39.606Z,5.45
2023-05-05T11:36:14.030Z,3.97
2023-05-05T11:38:41.636Z,6.88
2023-05-05T11:41:14.774Z,5.90
2023-05-05T11:43:43.305Z,4.80
2023-05-05T11:46:15.261Z,6.97
2023-05-05T11:48:50.491Z,5.63
2023-05-05T11:51:19.599Z,5.03
2023-05-05T11:53:49.260Z,6.03
2023-05-05T11:56:19.535Z,5.13
2023-05-05T11:59:05.965Z,5.03
2023-05-05T12:01:34.744Z,5.72
2023-05-05T12:04:02.606Z,6.53
2023-05-05T12:06:32.914Z,3.67
2023-05-05T12:09:01.277Z,4.60
2023-05-05T12:11:28.819Z,6.60
2023-05-05T12:14:12.247Z,6.88
2023-05-05T12:16:40.117Z,7.90
2023-05-05T12:19:08.796Z,4.10
2023-05-05T12:21:36.995Z,5.40
2023-05-05T12:24:05.163Z,4.63
2023-05-05T12:26:33.173Z,3.90
2023-05-05T12:29:01.262Z,5.25
2023-05-05T12:31:40.140Z,5.07
2023-05-05T12:34:10.580Z,6.93
2023-05-05T12:36:38.560Z,4.35
2023-05-05T12:39:06.407Z,7.20
2023-05-05T12:41:35.994Z,5.47
2023-05-05T12:44:04.370Z,4.13
2023-05-05T12:46:45.430Z,3.70
2023-05-05T12:49:13.314Z,4.22
2023-05-05T12:51:54.961Z,4.65
2023-05-05T12:54:25.160Z,6.72
2023-05-05T12:56:52.853Z,7.43
2023-05-05T12:59:23.410Z,3.05
2023-05-05T13:01:52.697Z,3.80
2023-05-05T13:04:23.446Z,6.70
2023-05-05T13:07:12.945Z,7.60
2023-05-05T13:09:40.927Z,4.30
2023-05-05T13:12:11.609Z,2.72
2023-05-05T13:14:41.079Z,3.30
2023-05-05T13:17:09.493Z,5.13
2023-05-05T13:19:42.127Z,5.10
2023-05-05T13:22:10.543Z,3.20
2023-05-05T13:24:50.859Z,4.00
2023-05-05T13:27:20.429Z,6.63
2023-05-05T13:29:48.380Z,3.60
2023-05-05T13:32:16.021Z,4.05
2023-05-05T13:34:44.301Z,3.65
2023-05-05T13:37:12.030Z,4.07
2023-05-05T13:42:07.159Z,6.07
2023-05-05T13:44:35.719Z,6.75
2023-05-05T13:47:03.825Z,4.43
2023-05-05T13:49:31.387Z,5.13
2023-05-05T13:54:26.795Z,4.80
2023-05-05T13:56:54.730Z,4.57
2023-05-05T13:59:22.365Z,4.97
2023-05-05T14:04:17.922Z,9.25
2023-05-05T14:09:31.451Z,6.03
2023-05-05T14:11:59.170Z,12.95
2023-05-05T14:14:26.936Z,8.05
2023-05-05T14:19:22.297Z,6.95
2023-05-05T14:21:49.860Z,8.60
2023-05-05T14:24:17.622Z,7.68
2023-05-05T14:26:45.212Z,3.53
2023-05-05T14:29:13.075Z,9.00
2023-05-05T14:31:40.671Z,8.52
2023-05-05T14:34:08.212Z,6.03
2023-05-05T14:36:35.834Z,5.38
2023-05-05T14:39:03.720Z,5.88
2023-05-05T14:41:31.744Z,3.20
2023-05-05T14:43:59.616Z,5.45
2023-05-05T14:48:56.598Z,6.70
2023-05-05T14:51:24.685Z,8.38
2023-05-05T14:53:53.342Z,5.05
2023-05-05T14:56:30.135Z,6.60
2023-05-05T14:58:58.744Z,7.40
2023-05-05T15:01:26.731Z,3.75
2023-05-05T15:03:54.884Z,2.88
2023-05-05T15:06:22.782Z,7.18
2023-05-05T15:08:50.606Z,5.70
2023-05-05T15:13:46.057Z,4.53
2023-05-05T15:16:13.642Z,4.20
2023-05-05T15:18:41.431Z,3.53
2023-05-05T15:21:09.448Z,3.53
2023-05-05T15:23:37.291Z,4.85
2023-05-05T15:26:07.530Z,5.25
2023-05-05T15:28:35.365Z,6.18
2023-05-05T15:31:03.692Z,5.05
2023-05-05T15:33:31.562Z,5.75
2023-05-05T15:40:56.667Z,5.32
2023-05-05T15:43:24.494Z,6.28
2023-05-05T15:45:54.278Z,5.80
2023-05-05T15:48:22.224Z,5.07
2023-05-05T15:50:50.024Z,6.60
2023-05-05T15:53:17.928Z,11.20
2023-05-05T15:55:46.248Z,5.13
2023-05-05T15:58:15.230Z,4.72
2023-05-05T16:00:42.870Z,6.72
2023-05-05T16:03:10.787Z,7.00
2023-05-05T16:08:09.766Z,6.65
2023-05-05T16:10:39.048Z,5.13
2023-05-05T16:13:07.071Z,6.10
2023-05-05T16:15:35.916Z,7.55
2023-05-05T16:18:03.958Z,8.32
2023-05-05T16:23:00.761Z,5.10
2023-05-05T16:25:29.346Z,5.38
2023-05-05T16:27:58.151Z,5.65
2023-05-05T16:30:27.268Z,6.25
2023-05-05T16:32:55.737Z,5.68
2023-05-05T16:37:51.062Z,4.63
2023-05-05T16:40:19.008Z,8.00
2023-05-05T16:42:46.765Z,4.80
2023-05-05T16:45:14.684Z,3.90
2023-05-05T16:50:10.211Z,4.45
2023-05-05T16:52:38.345Z,3.08
2023-05-05T16:55:06.474Z,3.88
2023-05-05T16:57:34.251Z,4.35
2023-05-05T17:00:02.050Z,8.80
2023-05-05T17:07:26.064Z,5.15
2023-05-05T17:09:53.683Z,4.10
2023-05-05T17:19:45.145Z,4.53
2023-05-05T17:22:12.826Z,5.22
2023-05-05T17:24:40.373Z,5.40
2023-05-05T17:27:08.004Z,2.75
2023-05-05T17:32:09.419Z,3.15
2023-05-05T17:34:38.784Z,6.32
2023-05-05T17:37:06.925Z,2.15
2023-05-05T17:42:06.077Z,1.50
2023-05-05T17:44:34.775Z,2.20
2023-05-05T17:47:03.882Z,3.75
2023-05-05T17:49:31.623Z,2.63
2023-05-05T17:52:02.305Z,2.60
2023-05-05T17:54:30.126Z,4.60
2023-05-05T17:56:57.767Z,4.32
2023-05-05T17:59:25.848Z,2.25
2023-05-05T18:01:53.690Z,6.03
2023-05-05T18:04:21.663Z,3.03
2023-05-05T18:09:20.756Z,4.90
2023-05-05T18:11:48.577Z,3.35
2023-05-05T18:16:50.808Z,2.00
2023-05-05T18:19:21.899Z,2.70
2023-05-05T18:21:54.560Z,3.65
2023-05-05T18:24:22.435Z,3.05
2023-05-05T18:29:21.585Z,5.43
2023-05-05T18:31:53.126Z,1.98
2023-05-05T18:34:21.506Z,2.75
2023-05-05T18:36:51.018Z,4.43
2023-05-05T18:39:18.746Z,3.63
2023-05-05T18:44:08.083Z,4.28
2023-05-05T18:49:04.188Z,4.93
2023-05-05T18:51:32.353Z,7.22
2023-05-05T18:54:01.175Z,5.93
2023-05-05T18:56:29.769Z,3.22
2023-05-05T18:58:57.705Z,2.80
2023-05-05T19:03:53.859Z,5.97
2023-05-05T19:06:26.525Z,3.22
2023-05-05T19:08:56.952Z,5.85
2023-05-05T19:11:49.881Z,4.50
2023-05-05T19:14:17.839Z,5.93
2023-05-05T19:16:45.888Z,5.80
2023-05-05T19:19:13.663Z,7.07
2023-05-05T19:21:41.385Z,7.03
2023-05-05T19:24:10.221Z,9.52
2023-05-05T19:26:38.295Z,10.23
2023-05-05T19:29:06.060Z,5.53
2023-05-05T19:31:34.084Z,5.30
2023-05-05T19:36:34.464Z,5.15
2023-05-05T19:39:05.422Z,4.72
2023-05-05T19:41:35.252Z,7.70
2023-05-05T19:44:04.205Z,5.07
2023-05-05T19:46:32.261Z,6.90
2023-05-05T19:49:01.456Z,12.50
2023-05-05T19:51:29.586Z,6.55
2023-05-05T19:53:57.435Z,7.28
2023-05-05T19:56:25.500Z,7.43
2023-05-05T19:59:00.918Z,10.57
2023-05-05T20:01:29.548Z,9.48
2023-05-05T20:03:57.676Z,6.53
2023-05-05T20:06:25.954Z,10.00
2023-05-05T20:11:22.423Z,9.88
2023-05-05T20:13:54.013Z,8.52
2023-05-05T20:16:22.036Z,9.98
2023-05-05T20:18:49.896Z,11.40
2023-05-05T20:21:18.781Z,11.80
2023-05-05T20:23:47.050Z,9.52
2023-05-05T20:26:16.375Z,7.00
2023-05-05T20:28:50.362Z,7.05
2023-05-05T20:31:18.649Z,9.30
2023-05-05T20:33:46.377Z,6.50
2023-05-05T20:36:15.566Z,8.52
2023-05-05T20:38:43.939Z,9.88
2023-05-05T20:41:11.840Z,8.63
2023-05-05T20:43:40.977Z,11.13
2023-05-05T20:46:13.061Z,7.53
2023-05-05T20:48:42.877Z,9.77
2023-05-05T20:51:10.748Z,11.50
2023-05-05T20:53:38.394Z,11.00
2023-05-05T20:56:08.673Z,10.32
2023-05-05T20:58:37.999Z,10.43
2023-05-05T21:01:05.677Z,9.70
2023-05-05T21:03:33.351Z,11.07
2023-05-05T21:06:01.910Z,10.23
2023-05-05T21:08:30.693Z,9.07
2023-05-05T21:11:02.378Z,10.77
2023-05-05T21:13:34.498Z,7.70
2023-05-05T21:16:02.646Z,9.07
2023-05-05T21:18:30.225Z,9.85
2023-05-05T21:20:58.878Z,8.05
2023-05-05T21:23:27.091Z,6.45
2023-05-05T21:25:55.172Z,8.40
2023-05-05T21:28:22.726Z,7.97
2023-05-05T21:33:23.718Z,8.32
2023-05-05T21:35:51.266Z,6.47
2023-05-05T21:38:18.925Z,7.13
2023-05-05T21:40:47.078Z,6.10
2023-05-05T21:45:41.939Z,8.77
2023-05-05T21:48:09.529Z,9.35
2023-05-05T21:50:37.214Z,8.45
2023-05-05T21:53:04.728Z,8.25
2023-05-05T21:55:32.438Z,9.45
2023-05-05T21:58:01.364Z,7.07
2023-05-05T22:00:29.201Z,9.73
2023-05-05T22:02:56.990Z,8.43
2023-05-05T22:05:24.934Z,9.20
2023-05-05T22:07:52.559Z,10.00
2023-05-05T22:10:20.280Z,12.07
2023-05-05T22:12:48.352Z,12.77
2023-05-05T22:15:20.014Z,11.75
2023-05-05T22:17:47.832Z,9.43
2023-05-05T22:20:16.759Z,9.82
2023-05-05T22:22:44.657Z,8.05
2023-05-05T22:25:12.465Z,9.48
2023-05-05T22:27:40.144Z,8.60
2023-05-05T22:30:09.892Z,15.10
2023-05-05T22:32:44.494Z,12.30
2023-05-05T22:35:12.530Z,11.00
2023-05-05T22:37:48.096Z,8.88
2023-05-05T22:40:19.758Z,9.27
2023-05-05T22:42:47.394Z,9.77
2023-05-05T22:45:16.853Z,12.10
2023-05-05T22:47:44.693Z,11.52
2023-05-05T22:50:12.568Z,16.50
2023-05-05T22:52:40.268Z,14.18
2023-05-05T22:55:17.772Z,13.70
2023-05-05T22:58:12.350Z,17.10
2023-05-05T23:00:45.335Z,15.25
2023-05-05T23:03:13.573Z,16.08
2023-05-05T23:05:41.236Z,12.02
2023-05-05T23:08:09.209Z,14.32
2023-05-05T23:10:37.009Z,16.67
2023-05-05T23:13:04.732Z,12.57
2023-05-05T23:15:32.860Z,12.52
2023-05-05T23:18:01.266Z,13.85
2023-05-05T23:20:29.996Z,12.82
2023-05-05T23:23:01.825Z,7.75
2023-05-05T23:25:29.737Z,9.25
2023-05-05T23:27:57.839Z,15.90
2023-05-05T23:32:53.462Z,12.23
2023-05-05T23:38:15.144Z,13.65
2023-05-05T23:40:43.100Z,11.35
2023-05-05T23:43:12.138Z,12.80
2023-05-05T23:45:41.155Z,16.10
2023-05-05T23:48:09.327Z,13.52
2023-05-05T23:50:37.061Z,10.68
2023-05-05T23:53:05.736Z,10.40
2023-05-05T23:55:33.861Z,13.95
2023-05-05T23:58:01.809Z,15.70
